createdAt,value
2022-08-28T00:00:11.121Z,100518.34
2022-08-28T00:02:41.139Z,100520.38
2022-08-28T00:05:14.267Z,100518.72
2022-08-28T00:07:47.674Z,100525.03
2022-08-28T00:10:18.895Z,100520.50
2022-08-28T00:12:50.063Z,100523.41
2022-08-28T00:15:23.749Z,100524.72
2022-08-28T00:17:53.424Z,100527.63
2022-08-28T00:20:26.841Z,100526.72
2022-08-28T00:22:57.393Z,100532.09
2022-08-28T00:25:28.640Z,100533.09
2022-08-28T00:27:57.706Z,100532.22
2022-08-28T00:30:31.003Z,100531.38
2022-08-28T00:33:04.106Z,100532.31
2022-08-28T00:35:36.921Z,100530.59
2022-08-28T00:38:06.620Z,100536.44
2022-08-28T00:40:37.222Z,100536.84
2022-08-28T00:43:09.049Z,100548.88
2022-08-28T00:45:40.269Z,100540.41
2022-08-28T00:48:11.038Z,100546.00
2022-08-28T00:50:56.774Z,100543.31
2022-08-28T00:53:32.956Z,100548.66
2022-08-28T00:56:08.122Z,100553.25
2022-08-28T00:58:43.758Z,100552.53
2022-08-28T01:01:14.683Z,100557.03
2022-08-28T01:03:45.611Z,100555.31
2022-08-28T01:06:20.611Z,100554.44
2022-08-28T01:08:50.842Z,100554.44
2022-08-28T01:11:21.679Z,100556.41
2022-08-28T01:13:54.361Z,100546.75
2022-08-28T01:16:30.815Z,100556.81
2022-08-28T01:19:03.425Z,100553.63
2022-08-28T01:21:40.610Z,100556.50
2022-08-28T01:24:15.908Z,100553.94
2022-08-28T01:26:45.615Z,100551.38
2022-08-28T01:29:16.053Z,100556.72
2022-08-28T01:31:46.003Z,100558.53
2022-08-28T01:34:15.738Z,100563.03
2022-08-28T01:36:48.546Z,100557.66
2022-08-28T01:39:22.958Z,100559.84
2022-08-28T01:41:54.713Z,100562.69
2022-08-28T01:44:26.613Z,100555.97
2022-08-28T01:46:57.784Z,100564.94
2022-08-28T01:49:29.498Z,100563.34
2022-08-28T01:52:00.779Z,100568.78
2022-08-28T01:54:35.428Z,100575.22
2022-08-28T01:57:05.741Z,100573.72
2022-08-28T01:59:35.417Z,100574.88
2022-08-28T02:02:05.193Z,100570.69
2022-08-28T02:04:35.597Z,100574.53
2022-08-28T02:07:05.252Z,100564.06
2022-08-28T02:09:37.837Z,100567.88
2022-08-28T02:12:07.847Z,100569.16
2022-08-28T02:14:38.487Z,100576.63
2022-08-28T02:17:08.211Z,100575.97
2022-08-28T02:19:37.857Z,100579.72
2022-08-28T02:22:09.411Z,100585.19
2022-08-28T02:24:41.816Z,100583.66
2022-08-28T02:27:11.472Z,100587.50
2022-08-28T02:29:41.137Z,100586.00
2022-08-28T02:32:10.988Z,100594.97
2022-08-28T02:34:42.201Z,100583.59
2022-08-28T02:37:13.358Z,100598.78
2022-08-28T02:39:45.640Z,100598.97
2022-08-28T02:42:15.475Z,100593.00
2022-08-28T02:44:46.238Z,100598.34
2022-08-28T02:47:16.261Z,100598.34
2022-08-28T02:49:45.899Z,100592.31
2022-08-28T02:52:15.881Z,100603.13
2022-08-28T02:54:48.214Z,100595.41
2022-08-28T02:57:17.884Z,100595.78
2022-08-28T02:59:47.832Z,100602.28
2022-08-28T03:02:17.473Z,100598.31
2022-08-28T03:04:48.431Z,100596.00
2022-08-28T03:07:19.403Z,100598.16
2022-08-28T03:09:51.673Z,100598.53
2022-08-28T03:12:24.092Z,100602.53
2022-08-28T03:14:53.848Z,100613.59
2022-08-28T03:17:24.084Z,100610.31
2022-08-28T03:19:53.897Z,100613.28
2022-08-28T03:22:44.621Z,100617.88
2022-08-28T03:25:14.260Z,100612.72
2022-08-28T03:27:43.889Z,100612.81
2022-08-28T03:30:14.613Z,100613.69
2022-08-28T03:32:44.199Z,100616.44
2022-08-28T03:35:14.737Z,100615.69
2022-08-28T03:37:44.479Z,100624.53
2022-08-28T03:40:17.454Z,100625.50
2022-08-28T03:42:53.618Z,100626.34
2022-08-28T03:45:24.053Z,100631.50
2022-08-28T03:47:55.360Z,100633.13
2022-08-28T03:50:25.113Z,100637.53
2022-08-28T03:52:56.855Z,100634.84
2022-08-28T03:55:29.436Z,100638.38
2022-08-28T03:57:59.349Z,100646.19
2022-08-28T04:00:29.444Z,100639.06
2022-08-28T04:02:59.570Z,100642.66
2022-08-28T04:05:29.611Z,100640.84
2022-08-28T04:07:59.349Z,100640.09
2022-08-28T04:10:33.166Z,100646.38
2022-08-28T04:13:03.257Z,100643.81
2022-08-28T04:15:32.999Z,100647.44
2022-08-28T04:18:02.651Z,100652.03
2022-08-28T04:20:32.399Z,100656.56
2022-08-28T04:23:03.558Z,100654.00
2022-08-28T04:25:36.194Z,100654.94
2022-08-28T04:28:06.459Z,100661.38
2022-08-28T04:30:36.524Z,100658.00
2022-08-28T04:33:06.240Z,100663.53
2022-08-28T04:35:35.905Z,100659.25
2022-08-28T04:38:06.280Z,100661.03
2022-08-28T04:40:41.610Z,100670.78
2022-08-28T04:43:11.747Z,100671.81
2022-08-28T04:45:42.319Z,100674.56
2022-08-28T04:48:13.717Z,100679.06
2022-08-28T04:50:43.755Z,100681.84
2022-08-28T04:53:14.518Z,100680.09
2022-08-28T04:55:54.184Z,100689.84
2022-08-28T04:58:25.271Z,100686.19
2022-08-28T05:00:56.582Z,100686.97
2022-08-28T05:03:26.854Z,100685.06
2022-08-28T05:05:57.155Z,100685.06
2022-08-28T05:08:28.370Z,100691.44
2022-08-28T05:11:01.016Z,100697.66
2022-08-28T05:13:31.163Z,100694.22
2022-08-28T05:16:00.810Z,100698.59
2022-08-28T05:18:30.439Z,100699.28
2022-08-28T05:21:01.982Z,100709.03
2022-08-28T05:23:32.324Z,100703.59
2022-08-28T05:26:04.854Z,100697.28
2022-08-28T05:28:34.495Z,100711.41
2022-08-28T05:31:11.609Z,100703.31
2022-08-28T05:33:41.348Z,100714.81
2022-08-28T05:36:12.110Z,100708.44
2022-08-28T05:38:42.269Z,100706.47
2022-08-28T05:41:14.700Z,100714.38
2022-08-28T05:43:44.326Z,100720.50
2022-08-28T05:46:16.285Z,100716.94
2022-08-28T05:48:48.635Z,100717.72
2022-08-28T05:51:22.354Z,100722.19
2022-08-28T05:53:52.682Z,100719.38
2022-08-28T05:56:29.695Z,100720.97
2022-08-28T05:58:59.590Z,100724.41
2022-08-28T06:01:30.831Z,100722.50
2022-08-28T06:04:02.914Z,100722.47
2022-08-28T06:06:35.615Z,100722.16
2022-08-28T06:09:08.382Z,100734.38
2022-08-28T06:11:46.175Z,100732.41
2022-08-28T06:14:17.951Z,100735.56
2022-08-28T06:16:49.849Z,100737.00
2022-08-28T06:19:20.596Z,100733.16
2022-08-28T06:21:51.663Z,100737.28
2022-08-28T06:24:21.611Z,100735.94
2022-08-28T06:26:54.722Z,100741.94
2022-08-28T06:29:29.415Z,100741.94
2022-08-28T06:32:01.092Z,100739.84
2022-08-28T06:34:30.919Z,100746.44
2022-08-28T06:37:00.792Z,100747.66
2022-08-28T06:39:30.431Z,100756.56
2022-08-28T06:42:02.616Z,100748.69
2022-08-28T06:44:32.458Z,100755.03
2022-08-28T06:47:03.219Z,100756.91
2022-08-28T06:49:34.026Z,100762.00
2022-08-28T06:52:03.691Z,100749.66
2022-08-28T06:54:33.870Z,100757.09
2022-08-28T06:57:07.944Z,100746.38
2022-08-28T06:59:37.624Z,100754.72
2022-08-28T07:02:09.368Z,100752.75
2022-08-28T07:04:39.158Z,100751.19
2022-08-28T07:07:10.535Z,100745.97
2022-08-28T07:09:48.398Z,100740.44
2022-08-28T07:12:21.075Z,100749.47
2022-08-28T07:14:50.765Z,100750.59
2022-08-28T07:17:20.389Z,100754.34
2022-08-28T07:19:50.029Z,100754.13
2022-08-28T07:22:19.663Z,100750.47
2022-08-28T07:24:49.377Z,100749.25
2022-08-28T07:27:21.692Z,100752.25
2022-08-28T07:29:52.249Z,100758.13
2022-08-28T07:32:22.338Z,100757.59
2022-08-28T07:34:52.071Z,100766.00
2022-08-28T07:37:22.099Z,100765.28
2022-08-28T07:39:51.751Z,100765.41
2022-08-28T07:42:36.219Z,100769.25
2022-08-28T07:45:06.176Z,100769.38
2022-08-28T07:47:38.627Z,100760.84
2022-08-28T07:50:08.948Z,100773.13
2022-08-28T07:52:38.570Z,100768.19
2022-08-28T07:55:09.791Z,100767.13
2022-08-28T07:57:43.301Z,100764.72
2022-08-28T08:00:14.161Z,100764.13
2022-08-28T08:02:43.776Z,100767.94
2022-08-28T08:05:14.434Z,100766.94
2022-08-28T08:07:44.155Z,100770.16
2022-08-28T08:10:19.865Z,100774.41
2022-08-28T08:12:53.028Z,100769.25
2022-08-28T08:15:23.417Z,100774.41
2022-08-28T08:17:53.058Z,100772.50
2022-08-28T08:20:22.778Z,100772.22
2022-08-28T08:22:52.393Z,100769.78
2022-08-28T08:25:22.035Z,100776.94
2022-08-28T08:27:54.436Z,100780.34
2022-08-28T08:30:24.064Z,100765.63
2022-08-28T08:32:53.822Z,100785.44
2022-08-28T08:35:24.310Z,100780.16
2022-08-28T08:37:53.928Z,100788.22
2022-08-28T08:40:23.733Z,100785.28
2022-08-28T08:42:58.299Z,100796.16
2022-08-28T08:45:29.525Z,100779.19
2022-08-28T08:47:59.320Z,100779.34
2022-08-28T08:50:31.710Z,100765.25
2022-08-28T08:53:16.839Z,100771.31
2022-08-28T08:55:50.137Z,100781.16
2022-08-28T08:58:27.817Z,100779.44
2022-08-28T09:01:03.090Z,100779.19
2022-08-28T09:03:46.857Z,100777.28
2022-08-28T09:06:22.792Z,100779.28
2022-08-28T09:08:57.220Z,100784.56
2022-08-28T09:11:34.354Z,100784.22
2022-08-28T09:14:11.392Z,100792.50
2022-08-28T09:16:43.663Z,100792.72
2022-08-28T09:19:15.467Z,100791.00
2022-08-28T09:21:47.722Z,100791.19
2022-08-28T09:24:23.676Z,100792.00
2022-08-28T09:27:00.101Z,100796.81
2022-08-28T09:29:35.209Z,100791.66
2022-08-28T09:32:20.731Z,100794.81
2022-08-28T09:35:08.788Z,100796.31
2022-08-28T09:37:39.745Z,100793.00
2022-08-28T09:40:54.494Z,100798.16
2022-08-28T09:43:26.932Z,100793.13
2022-08-28T09:46:03.061Z,100786.81
2022-08-28T09:48:37.691Z,100794.38
2022-08-28T09:51:09.650Z,100799.56
2022-08-28T09:53:41.321Z,100785.41
2022-08-28T09:56:14.669Z,100792.38
2022-08-28T09:58:46.215Z,100787.13
2022-08-28T10:01:32.349Z,100787.84
2022-08-28T10:04:12.558Z,100786.97
2022-08-28T10:06:43.594Z,100781.47
2022-08-28T10:09:19.379Z,100777.69
2022-08-28T10:11:55.570Z,100771.25
2022-08-28T10:14:38.289Z,100782.84
2022-08-28T10:17:18.851Z,100784.84
2022-08-28T10:19:53.671Z,100781.66
2022-08-28T10:22:31.442Z,100790.66
2022-08-28T10:25:11.269Z,100789.19
2022-08-28T10:27:53.331Z,100778.09
2022-08-28T10:30:25.228Z,100785.19
2022-08-28T10:33:19.483Z,100784.16
2022-08-28T10:35:51.642Z,100783.56
2022-08-28T10:38:23.185Z,100793.72
2022-08-28T10:40:56.991Z,100793.69
2022-08-28T10:43:32.156Z,100786.25
2022-08-28T10:46:04.324Z,100792.31
2022-08-28T10:48:42.404Z,100789.06
2022-08-28T10:51:16.753Z,100791.41
2022-08-28T10:53:50.094Z,100790.63
2022-08-28T10:56:22.741Z,100784.16
2022-08-28T10:58:55.565Z,100786.44
2022-08-28T11:01:29.957Z,100792.34
2022-08-28T11:04:04.777Z,100796.06
2022-08-28T11:06:38.099Z,100790.59
2022-08-28T11:09:27.839Z,100793.88
2022-08-28T11:12:02.025Z,100797.94
2022-08-28T11:14:34.290Z,100792.19
2022-08-28T11:17:07.236Z,100792.97
2022-08-28T11:20:01.259Z,100790.16
2022-08-28T11:22:32.781Z,100797.56
2022-08-28T11:25:09.751Z,100788.25
2022-08-28T11:27:41.251Z,100795.63
2022-08-28T11:30:36.693Z,100787.19
2022-08-28T11:33:11.803Z,100783.03
2022-08-28T11:35:58.836Z,100785.97
2022-08-28T11:39:13.683Z,100786.94
2022-08-28T11:42:32.377Z,100793.13
2022-08-28T11:45:02.719Z,100788.09
2022-08-28T11:47:40.218Z,100790.28
2022-08-28T11:50:18.236Z,100781.66
2022-08-28T11:53:20.879Z,100780.16
2022-08-28T11:56:09.493Z,100790.47
2022-08-28T11:58:45.484Z,100776.16
2022-08-28T12:01:16.912Z,100784.22
2022-08-28T12:03:48.418Z,100790.47
2022-08-28T12:06:18.150Z,100801.25
2022-08-28T12:09:12.298Z,100782.13
2022-08-28T12:11:56.907Z,100785.34
2022-08-28T12:15:07.810Z,100780.97
2022-08-28T12:17:52.982Z,100780.97
2022-08-28T12:21:01.555Z,100775.78
2022-08-28T12:23:41.862Z,100775.22
2022-08-28T12:26:17.531Z,100783.44
2022-08-28T12:28:52.139Z,100778.50
2022-08-28T12:31:55.862Z,100762.81
2022-08-28T12:34:34.003Z,100766.69
2022-08-28T12:37:05.198Z,100765.47
2022-08-28T12:39:35.566Z,100772.31
2022-08-28T12:42:06.145Z,100761.28
2022-08-28T12:44:38.367Z,100768.16
2022-08-28T12:47:08.554Z,100775.78
2022-08-28T12:49:40.248Z,100771.38
2022-08-28T12:52:12.191Z,100774.66
2022-08-28T12:54:47.093Z,100758.97
2022-08-28T12:57:18.776Z,100764.69
2022-08-28T12:59:52.865Z,100757.06
2022-08-28T13:02:28.327Z,100763.66
2022-08-28T13:05:00.944Z,100755.31
2022-08-28T13:07:32.569Z,100753.06
2022-08-28T13:10:04.467Z,100758.22
2022-08-28T13:12:44.130Z,100754.06
2022-08-28T13:15:48.515Z,100757.75
2022-08-28T13:18:43.525Z,100742.41
2022-08-28T13:21:34.426Z,100752.06
2022-08-28T13:24:29.245Z,100733.94
2022-08-28T13:27:03.442Z,100756.34
2022-08-28T13:29:33.418Z,100747.81
2022-08-28T13:32:07.716Z,100745.25
2022-08-28T13:34:38.955Z,100746.63
2022-08-28T13:37:45.953Z,100742.09
2022-08-28T13:40:45.834Z,100740.13
2022-08-28T13:43:10.192Z,100737.16
2022-08-28T13:45:43.417Z,100731.91
2022-08-28T13:48:17.003Z,100742.41
2022-08-28T13:50:48.187Z,100736.88
2022-08-28T13:53:20.023Z,100728.78
2022-08-28T13:55:51.886Z,100729.38
2022-08-28T13:58:21.996Z,100722.88
2022-08-28T14:00:52.720Z,100725.91
2022-08-28T14:03:37.562Z,100720.84
2022-08-28T14:06:11.471Z,100716.59
2022-08-28T14:08:41.260Z,100729.66
2022-08-28T14:11:12.782Z,100722.44
2022-08-28T14:13:47.470Z,100712.31
2022-08-28T14:16:25.472Z,100710.75
2022-08-28T14:18:59.517Z,100702.25
2022-08-28T14:21:29.341Z,100701.84
2022-08-28T14:23:58.961Z,100704.13
2022-08-28T14:26:28.636Z,100707.41
2022-08-28T14:28:58.307Z,100705.56
2022-08-28T14:31:28.083Z,100704.00
2022-08-28T14:34:00.707Z,100700.13
2022-08-28T14:36:32.447Z,100697.84
2022-08-28T14:39:06.192Z,100691.72
2022-08-28T14:41:36.968Z,100696.97
2022-08-28T14:44:09.182Z,100701.25
2022-08-28T14:46:40.020Z,100706.50
2022-08-28T14:49:14.547Z,100706.94
2022-08-28T14:51:45.649Z,100708.47
2022-08-28T14:54:17.050Z,100696.22
2022-08-28T14:56:48.009Z,100703.44
2022-08-28T14:59:24.525Z,100700.75
2022-08-28T15:01:55.655Z,100703.03
2022-08-28T15:04:29.124Z,100708.66
2022-08-28T15:07:01.306Z,100699.72
2022-08-28T15:09:31.102Z,100707.69
2022-08-28T15:12:00.713Z,100703.25
2022-08-28T15:14:31.405Z,100707.06
2022-08-28T15:17:01.304Z,100698.16
2022-08-28T15:19:33.563Z,100697.88
2022-08-28T15:22:04.315Z,100694.19
2022-08-28T15:24:36.038Z,100697.63
2022-08-28T15:27:05.965Z,100695.03
2022-08-28T15:29:35.554Z,100702.16
2022-08-28T15:32:05.441Z,100692.34
2022-08-28T15:34:38.664Z,100702.16
2022-08-28T15:37:08.292Z,100703.03
2022-08-28T15:39:50.330Z,100699.31
2022-08-28T15:42:19.955Z,100696.91
2022-08-28T15:44:49.551Z,100696.91
2022-08-28T15:47:19.192Z,100687.09
2022-08-28T15:49:57.155Z,100687.09
2022-08-28T15:52:27.754Z,100698.75
2022-08-28T15:54:57.628Z,100700.44
2022-08-28T15:57:27.219Z,100692.47
2022-08-28T15:59:57.014Z,100695.44
2022-08-28T16:02:27.831Z,100700.38
2022-08-28T16:05:00.384Z,100690.72
2022-08-28T16:07:30.411Z,100686.44
2022-08-28T16:10:00.026Z,100680.47
2022-08-28T16:12:29.647Z,100677.91
2022-08-28T16:14:59.242Z,100681.59
2022-08-28T16:17:28.875Z,100678.06
2022-08-28T16:20:01.061Z,100687.97
2022-08-28T16:22:30.636Z,100684.81
2022-08-28T16:25:00.229Z,100681.53
2022-08-28T16:27:29.965Z,100680.81
2022-08-28T16:29:59.629Z,100686.44
2022-08-28T16:32:29.413Z,100682.91
2022-08-28T16:35:02.777Z,100678.47
2022-08-28T16:37:39.864Z,100687.53
2022-08-28T16:40:11.687Z,100686.97
2022-08-28T16:42:51.469Z,100686.38
2022-08-28T16:45:21.544Z,100690.03
2022-08-28T16:47:51.812Z,100687.63
2022-08-28T16:50:24.658Z,100685.28
2022-08-28T16:52:54.276Z,100689.38
2022-08-28T16:55:23.983Z,100688.06
2022-08-28T16:57:53.573Z,100680.38
2022-08-28T17:00:24.016Z,100690.66
2022-08-28T17:02:54.448Z,100689.22
2022-08-28T17:05:27.321Z,100682.13
2022-08-28T17:07:56.957Z,100679.69
2022-08-28T17:10:27.259Z,100685.34
2022-08-28T17:12:56.880Z,100689.97
2022-08-28T17:15:26.526Z,100679.47
2022-08-28T17:17:56.182Z,100683.41
2022-08-28T17:20:41.087Z,100677.53
2022-08-28T17:23:10.742Z,100683.59
2022-08-28T17:25:40.348Z,100688.47
2022-08-28T17:28:10.694Z,100684.47
2022-08-28T17:30:40.471Z,100679.53
2022-08-28T17:33:10.062Z,100689.81
2022-08-28T17:35:42.445Z,100692.06
2022-08-28T17:38:12.157Z,100686.06
2022-08-28T17:40:41.937Z,100691.69
2022-08-28T17:43:11.562Z,100699.16
2022-08-28T17:45:41.211Z,100694.25
2022-08-28T17:48:10.861Z,100697.69
2022-08-28T17:50:43.070Z,100701.84
2022-08-28T17:53:12.677Z,100697.94
2022-08-28T17:55:42.331Z,100716.38
2022-08-28T17:58:12.059Z,100707.94
2022-08-28T18:00:42.315Z,100706.72
2022-08-28T18:03:12.124Z,100707.31
2022-08-28T18:05:44.838Z,100704.34
2022-08-28T18:08:15.447Z,100716.78
2022-08-28T18:10:45.737Z,100717.50
2022-08-28T18:13:15.512Z,100721.63
2022-08-28T18:15:45.294Z,100721.38
2022-08-28T18:18:20.807Z,100724.84
2022-08-28T18:20:59.259Z,100721.25
2022-08-28T18:23:28.984Z,100724.75
2022-08-28T18:25:58.629Z,100728.34
2022-08-28T18:28:28.796Z,100731.91
2022-08-28T18:30:58.451Z,100730.88
2022-08-28T18:33:28.356Z,100735.06
2022-08-28T18:36:01.108Z,100738.53
2022-08-28T18:38:34.986Z,100741.00
2022-08-28T18:41:06.954Z,100737.91
2022-08-28T18:43:37.335Z,100741.16
2022-08-28T18:46:08.875Z,100748.66
2022-08-28T18:48:39.161Z,100754.34
2022-08-28T18:51:12.675Z,100751.16
2022-08-28T18:53:43.371Z,100758.53
2022-08-28T18:56:13.386Z,100761.31
2022-08-28T18:58:43.072Z,100759.81
2022-08-28T19:01:13.238Z,100772.69
2022-08-28T19:03:42.883Z,100770.22
2022-08-28T19:06:17.926Z,100773.16
2022-08-28T19:08:47.845Z,100776.16
2022-08-28T19:11:17.496Z,100783.56
2022-08-28T19:13:47.462Z,100785.59
2022-08-28T19:16:20.529Z,100785.91
2022-08-28T19:18:51.454Z,100790.63
2022-08-28T19:21:26.214Z,100791.78
2022-08-28T19:23:56.532Z,100793.69
2022-08-28T19:26:26.501Z,100796.59
2022-08-28T19:28:56.359Z,100794.25
2022-08-28T19:31:26.931Z,100795.41
2022-08-28T19:33:57.075Z,100793.97
2022-08-28T19:36:30.346Z,100795.91
2022-08-28T19:39:00.957Z,100797.06
2022-08-28T19:41:32.488Z,100801.75
2022-08-28T19:44:02.301Z,100803.03
2022-08-28T19:46:31.994Z,100805.91
2022-08-28T19:49:03.313Z,100799.91
2022-08-28T19:51:35.742Z,100809.97
2022-08-28T19:54:05.894Z,100812.91
2022-08-28T19:56:37.396Z,100813.97
2022-08-28T19:59:08.915Z,100817.59
2022-08-28T20:01:40.743Z,100820.50
2022-08-28T20:04:13.469Z,100820.69
2022-08-28T20:06:45.857Z,100819.28
2022-08-28T20:09:15.511Z,100822.31
2022-08-28T20:11:46.930Z,100824.38
2022-08-28T20:14:17.659Z,100829.00
2022-08-28T20:16:48.817Z,100835.50
2022-08-28T20:19:18.802Z,100843.84
2022-08-28T20:21:52.166Z,100845.94
2022-08-28T20:24:24.141Z,100841.84
2022-08-28T20:26:54.528Z,100840.41
2022-08-28T20:29:24.481Z,100843.44
2022-08-28T20:31:54.512Z,100843.06
2022-08-28T20:34:24.294Z,100844.41
2022-08-28T20:36:56.562Z,100843.81
2022-08-28T20:39:26.227Z,100852.78
2022-08-28T20:41:55.890Z,100845.72
2022-08-28T20:44:25.801Z,100846.69
2022-08-28T20:46:55.864Z,100849.72
2022-08-28T20:49:25.779Z,100853.53
2022-08-28T20:52:01.345Z,100852.88
2022-08-28T20:54:33.086Z,100846.75
2022-08-28T20:57:04.586Z,100863.63
2022-08-28T20:59:39.674Z,100866.25
2022-08-28T21:02:11.611Z,100861.75
2022-08-28T21:04:42.412Z,100867.09
2022-08-28T21:07:15.537Z,100863.56
2022-08-28T21:10:06.025Z,100874.25
2022-08-28T21:12:35.071Z,100875.31
2022-08-28T21:15:04.852Z,100883.47
2022-08-28T21:17:34.521Z,100885.50
2022-08-28T21:20:10.468Z,100882.97
2022-08-28T21:22:43.086Z,100881.38
2022-08-28T21:25:13.713Z,100875.16
2022-08-28T21:27:43.361Z,100878.00
2022-08-28T21:30:15.563Z,100889.81
2022-08-28T21:32:45.368Z,100889.94
2022-08-28T21:35:16.129Z,100887.44
2022-08-28T21:37:48.789Z,100885.91
2022-08-28T21:40:19.472Z,100889.69
2022-08-28T21:42:49.483Z,100888.97
2022-08-28T21:45:19.142Z,100885.59
2022-08-28T21:47:48.778Z,100888.66
2022-08-28T21:50:19.312Z,100885.38
2022-08-28T21:52:51.507Z,100891.84
2022-08-28T21:55:21.137Z,100888.66
2022-08-28T21:57:51.431Z,100897.09
2022-08-28T22:00:23.689Z,100887.44
2022-08-28T22:02:53.429Z,100892.97
2022-08-28T22:05:23.333Z,100890.56
2022-08-28T22:07:55.540Z,100897.97
2022-08-28T22:10:26.255Z,100890.22
2022-08-28T22:12:55.871Z,100899.44
2022-08-28T22:15:25.599Z,100894.44
2022-08-28T22:17:55.203Z,100898.97
2022-08-28T22:20:24.868Z,100895.53
2022-08-28T22:23:09.789Z,100900.03
2022-08-28T22:25:40.891Z,100899.31
2022-08-28T22:28:11.911Z,100901.06
2022-08-28T22:30:41.529Z,100902.84
2022-08-28T22:33:11.797Z,100891.22
2022-08-28T22:35:41.515Z,100900.09
2022-08-28T22:38:13.910Z,100886.75
2022-08-28T22:40:43.805Z,100893.13
2022-08-28T22:43:13.528Z,100894.16
2022-08-28T22:45:43.360Z,100896.91
2022-08-28T22:48:13.466Z,100892.59
2022-08-28T22:50:43.241Z,100886.56
2022-08-28T22:53:15.717Z,100888.53
2022-08-28T22:55:46.012Z,100891.47
2022-08-28T22:58:15.724Z,100880.09
2022-08-28T23:00:45.496Z,100881.19
2022-08-28T23:03:15.205Z,100887.50
2022-08-28T23:05:44.897Z,100887.56
2022-08-28T23:08:17.115Z,100885.94
2022-08-28T23:10:58.983Z,100878.06
2022-08-28T23:13:29.243Z,100887.97
2022-08-28T23:15:58.865Z,100881.94
2022-08-28T23:18:28.642Z,100880.25
2022-08-28T23:20:58.468Z,100879.50
2022-08-28T23:23:31.089Z,100873.38
2022-08-28T23:26:00.725Z,100878.69
2022-08-28T23:28:30.354Z,100873.47
2022-08-28T23:31:00.003Z,100870.97
2022-08-28T23:33:29.739Z,100871.28
2022-08-28T23:35:59.381Z,100872.47
2022-08-28T23:38:31.665Z,100881.56
2022-08-28T23:41:02.135Z,100879.91
2022-08-28T23:43:32.808Z,100882.03
2022-08-28T23:46:02.547Z,100886.84
2022-08-28T23:48:32.317Z,100895.13
2022-08-28T23:51:01.949Z,100896.38
2022-08-28T23:53:35.475Z,100903.91
2022-08-28T23:56:05.557Z,100900.69
2022-08-28T23:58:35.209Z,100898.31
